Weather History for Gwinner, ND

Change the Weather History Date:

Tuesday, March 4, 2014

  Actual Average (KP67) Record (KP67)
Temperature  
Mean Temperature 12 °F -  
Max Temperature 15 °F 23 °F 30 °F (1998)
Min Temperature 10 °F 6 °F -9 °F (1997)
Degree Days  
Heating Degree Days 52    
Moisture  
Dew Point 5 °F    
Average Humidity 72    
Maximum Humidity 85    
Minimum Humidity 62    
Precipitation  
Precipitation 0.00 in - - ()
Sea Level Pressure  
Sea Level Pressure 30.17 in    
Wind  
Wind Speed 8 mph (ENE)    
Max Wind Speed 17 mph    
Max Gust Speed 21 mph    
Visibility 10 miles    
Events      
Averages and records for this station are not official NWS values.
T = Trace of Precipitation, MM = Missing Value Source: NWS Daily Summary

Daily Weather History Graph

Daily Weather History Graph

Search for Another Location

Airport:

Trip Planner

Search our weather history database for the weather conditions in past years. The results will help you decide how hot, cold, wet, or windy it might be!

Date:

Astronomy

Mar. 04, 2014 Rise Set
Actual Time 7:04 AM CST 6:21 PM CST
Civil Twilight 6:34 AM CST 6:51 PM CST
Nautical Twilight 5:59 AM CST 7:25 PM CST
Astronomical Twilight 5:24 AM CST 8:00 PM CST
Moon 8:37 AM CST (3/4) 10:45 PM CST (3/4)
Length of Visible Light 12h 17m
Length of Day
11h 17m
Waxing Crescent, 15% of the Moon is Illuminated
Mar 4
Waxing Crescent
Mar 8
First Quarter
Mar 16
Full
Mar 23
Last Quarter
Mar 30
New

Hourly Weather History & Observations

Time (CST) Temp. Windchill Dew Point Humidity Pressure Visibility Wind Dir Wind Speed Gust Speed Precip Events Conditions
12:15 AM 12.2 °F 4.3 °F 3.2 °F 67% 30.11 in 10.0 mi ESE 4.6 mph - 0.00 in   Mostly Cloudy
12:35 AM 12.2 °F 6.1 °F 3.2 °F 67% 30.11 in 10.0 mi ESE 3.5 mph - 0.00 in   Mostly Cloudy
12:55 AM 12.2 °F - 3.2 °F 67% 30.12 in 10.0 mi Calm Calm - 0.00 in   Mostly Cloudy
1:15 AM 12.2 °F - 3.2 °F 67% 30.13 in 10.0 mi Calm Calm - 0.00 in   Overcast
1:35 AM 12.2 °F 2.9 °F 3.2 °F 67% 30.12 in 10.0 mi East 5.8 mph - 0.00 in   Overcast
1:55 AM 12.2 °F 1.7 °F 3.2 °F 67% 30.12 in 10.0 mi East 6.9 mph - 0.00 in   Overcast
2:15 AM 12.2 °F 1.7 °F 3.2 °F 67% 30.12 in 10.0 mi East 6.9 mph - 0.00 in   Overcast
2:35 AM 12.2 °F 1.7 °F 3.2 °F 67% 30.12 in 10.0 mi East 6.9 mph - 0.00 in   Overcast
2:55 AM 12.2 °F 2.9 °F 3.2 °F 67% 30.12 in 10.0 mi East 5.8 mph - 0.00 in   Overcast
3:15 AM 12.2 °F 0.7 °F 3.2 °F 67% 30.11 in 10.0 mi East 8.1 mph - 0.00 in   Overcast
3:35 AM 12.2 °F 1.7 °F 3.2 °F 67% 30.10 in 10.0 mi East 6.9 mph - 0.00 in   Overcast
3:55 AM 12.2 °F 0.7 °F 3.2 °F 67% 30.10 in 10.0 mi East 8.1 mph - 0.00 in   Overcast
4:15 AM 12.2 °F 2.9 °F 3.2 °F 67% 30.12 in 10.0 mi East 5.8 mph - 0.00 in   Overcast
4:35 AM 12.2 °F 0.7 °F 5.0 °F 73% 30.12 in 10.0 mi ENE 8.1 mph - 0.00 in   Overcast
4:55 AM 12.2 °F 1.7 °F 5.0 °F 73% 30.12 in 10.0 mi ENE 6.9 mph - 0.00 in   Mostly Cloudy
5:15 AM 12.2 °F -0.2 °F 5.0 °F 73% 30.11 in 10.0 mi ENE 9.2 mph - 0.00 in   Mostly Cloudy
5:35 AM 12.2 °F -1.8 °F 6.8 °F 79% 30.11 in 10.0 mi ENE 11.5 mph - 0.00 in   Mostly Cloudy
5:55 AM 10.4 °F -4.1 °F 6.8 °F 85% 30.10 in 10.0 mi ENE 11.5 mph - 0.00 in   Overcast
6:15 AM 10.4 °F -2.4 °F 6.8 °F 85% 30.12 in 10.0 mi ENE 9.2 mph - 0.00 in   Overcast
6:35 AM 10.4 °F -1.5 °F 6.8 °F 85% 30.13 in 10.0 mi ENE 8.1 mph - 0.00 in   Overcast
6:55 AM 10.4 °F 0.8 °F 6.8 °F 85% 30.14 in 10.0 mi ENE 5.8 mph - 0.00 in   Overcast
7:15 AM 10.4 °F -0.4 °F 6.8 °F 85% 30.14 in 10.0 mi ENE 6.9 mph - 0.00 in   Overcast
7:35 AM 10.4 °F -0.4 °F 5.0 °F 79% 30.15 in 10.0 mi East 6.9 mph - 0.00 in   Overcast
7:55 AM 10.4 °F -1.5 °F 6.8 °F 85% 30.15 in 10.0 mi ENE 8.1 mph - 0.00 in   Overcast
8:15 AM 10.4 °F -3.3 °F 6.8 °F 85% 30.15 in 10.0 mi East 10.4 mph - 0.00 in   Overcast
8:35 AM 12.2 °F -1.8 °F 6.8 °F 79% 30.15 in 10.0 mi East 11.5 mph - 0.00 in   Overcast
8:55 AM 12.2 °F -1.0 °F 6.8 °F 79% 30.15 in 10.0 mi East 10.4 mph - 0.00 in   Overcast
9:15 AM 12.2 °F -1.8 °F 5.0 °F 73% 30.15 in 10.0 mi East 11.5 mph - 0.00 in   Overcast
9:35 AM 12.2 °F -1.8 °F 5.0 °F 73% 30.16 in 10.0 mi ENE 11.5 mph - 0.00 in   Overcast
9:55 AM 12.2 °F -0.2 °F 5.0 °F 73% 30.17 in 10.0 mi ENE 9.2 mph - 0.00 in   Overcast
10:35 AM 14.0 °F -2.5 °F 5.0 °F 67% 30.15 in 10.0 mi ENE 17.3 mph 20.7 mph 0.00 in   Mostly Cloudy
10:55 AM 14.0 °F -0.8 °F 5.0 °F 67% 30.15 in 10.0 mi ENE 13.8 mph 19.6 mph 0.00 in   Scattered Clouds
11:15 AM 14.0 °F -1.4 °F 5.0 °F 67% 30.15 in 10.0 mi ENE 15.0 mph - 0.00 in   Partly Cloudy
11:35 AM 14.0 °F -0.2 °F 5.0 °F 67% 30.16 in 10.0 mi ENE 12.7 mph - 0.00 in   Partly Cloudy
11:55 AM 14.0 °F 0.5 °F 5.0 °F 67% 30.16 in 10.0 mi ENE 11.5 mph - 0.00 in   Partly Cloudy
12:15 PM 14.0 °F -2.0 °F 5.0 °F 67% 30.16 in 10.0 mi ENE 16.1 mph - 0.00 in   Partly Cloudy
12:35 PM 14.0 °F -0.2 °F 5.0 °F 67% 30.15 in 10.0 mi ENE 12.7 mph - 0.00 in   Clear
12:55 PM 14.0 °F -0.2 °F 5.0 °F 67% 30.15 in 4.0 mi ENE 12.7 mph - 0.00 in   Mostly Cloudy
1:15 PM 14.0 °F -0.2 °F 6.8 °F 73% 30.15 in 5.0 mi East 12.7 mph - 0.00 in   Mostly Cloudy
1:35 PM 14.0 °F 0.5 °F 6.8 °F 73% 30.15 in 7.0 mi East 11.5 mph - 0.00 in   Mostly Cloudy
1:55 PM 14.0 °F -0.2 °F 6.8 °F 73% 30.14 in 4.0 mi ENE 12.7 mph - 0.00 in   Overcast
2:15 PM 15.8 °F 2.1 °F 8.6 °F 73% 30.14 in 6.0 mi ENE 12.7 mph - 0.00 in   Overcast
2:35 PM 15.8 °F 2.1 °F 8.6 °F 73% 30.15 in 5.0 mi ENE 12.7 mph - 0.00 in   Mostly Cloudy
2:55 PM 15.8 °F 2.7 °F 8.6 °F 73% 30.15 in 10.0 mi ENE 11.5 mph - 0.00 in   Mostly Cloudy
3:15 PM 15.8 °F 2.7 °F 6.8 °F 68% 30.16 in 10.0 mi ENE 11.5 mph - 0.00 in   Mostly Cloudy
3:35 PM 15.8 °F 3.4 °F 5.0 °F 62% 30.16 in 10.0 mi NE 10.4 mph - 0.00 in   Partly Cloudy
3:55 PM 15.8 °F 1.4 °F 6.8 °F 68% 30.16 in 10.0 mi ENE 13.8 mph - 0.00 in   Scattered Clouds
4:15 PM 15.8 °F 2.1 °F 6.8 °F 68% 30.16 in 4.0 mi ENE 12.7 mph - 0.00 in   Mostly Cloudy
4:35 PM 15.8 °F 2.1 °F 8.6 °F 73% 30.16 in 9.0 mi NE 12.7 mph - 0.00 in   Mostly Cloudy
4:55 PM 14.0 °F 0.5 °F 6.8 °F 73% 30.16 in 10.0 mi ENE 11.5 mph - 0.00 in   Overcast
5:15 PM 14.0 °F 0.5 °F 6.8 °F 73% 30.17 in 10.0 mi NE 11.5 mph - 0.00 in   Mostly Cloudy
5:35 PM 14.0 °F 1.2 °F 5.0 °F 67% 30.17 in 10.0 mi ENE 10.4 mph - 0.00 in   Scattered Clouds
5:55 PM 14.0 °F 0.5 °F 5.0 °F 67% 30.19 in 10.0 mi NE 11.5 mph - 0.00 in   Mostly Cloudy
6:15 PM 14.0 °F 0.5 °F 5.0 °F 67% 30.21 in 10.0 mi ENE 11.5 mph - 0.00 in   Overcast
6:35 PM 14.0 °F 2.0 °F 5.0 °F 67% 30.23 in 10.0 mi NE 9.2 mph - 0.00 in   Overcast
6:55 PM 14.0 °F 1.2 °F 5.0 °F 67% 30.24 in 10.0 mi NE 10.4 mph - 0.00 in   Overcast
7:15 PM 14.0 °F 0.5 °F 6.8 °F 73% 30.24 in 10.0 mi NNE 11.5 mph - 0.00 in   Overcast
7:35 PM 12.2 °F -2.5 °F 6.8 °F 79% 30.24 in 10.0 mi NE 12.7 mph - 0.00 in   Overcast
7:55 PM 12.2 °F -3.1 °F 6.8 °F 79% 30.24 in 10.0 mi NE 13.8 mph - 0.00 in   Overcast
8:15 PM 12.2 °F -3.1 °F 5.0 °F 73% 30.24 in 10.0 mi NNE 13.8 mph - 0.00 in   Overcast
8:35 PM 12.2 °F -1.8 °F 5.0 °F 73% 30.25 in 10.0 mi NNE 11.5 mph - 0.00 in   Overcast
8:55 PM 12.2 °F -3.1 °F 5.0 °F 73% 30.25 in 10.0 mi NNE 13.8 mph - 0.00 in   Overcast
9:15 PM 12.2 °F -3.1 °F 5.0 °F 73% 30.25 in 10.0 mi NNE 13.8 mph - 0.00 in   Overcast
9:35 PM 12.2 °F -1.8 °F 5.0 °F 73% 30.26 in 10.0 mi NNE 11.5 mph - 0.00 in   Overcast
9:55 PM 12.2 °F -2.5 °F 5.0 °F 73% 30.26 in 10.0 mi NE 12.7 mph - 0.00 in   Overcast
10:15 PM 12.2 °F -1.8 °F 5.0 °F 73% 30.26 in 10.0 mi NNE 11.5 mph - 0.00 in   Overcast
10:35 PM 10.4 °F -4.1 °F 5.0 °F 79% 30.26 in 10.0 mi NE 11.5 mph - 0.00 in   Overcast
10:55 PM 10.4 °F -3.3 °F 5.0 °F 79% 30.27 in 10.0 mi NNE 10.4 mph - 0.00 in   Overcast
11:15 PM 10.4 °F -3.3 °F 3.2 °F 73% 30.28 in 10.0 mi NNE 10.4 mph - 0.00 in   Overcast
11:35 PM 10.4 °F -1.5 °F 3.2 °F 73% 30.29 in 10.0 mi NNE 8.1 mph - 0.00 in   Overcast
11:55 PM 10.4 °F -2.4 °F 3.2 °F 73% 30.29 in 10.0 mi NNE 9.2 mph - 0.00 in   Overcast